Time;durP1;ratioP1;P1;durP2;ratioP2;P2;SDS_P1;SDS_P2;PMS_P1;PMS_P2;Temp;Humidity;BMP_temperature;BMP_pressure;BME280_temperature;BME280_humidity;BME280_pressure;Samples;Min_cycle;Max_cycle;Signal;HPM_P1;HPM_P2
2021/08/20 00:04:17;;;;;;;3.78;2.90;;;;;;;;;;20830186;28;20049;-66
2021/08/20 00:14:20;;;;;;;5.72;3.22;;;;;;;;;;20829675;28;20525;-64
2021/08/20 00:24:22;;;;;;;5.38;2.95;;;;;;;;;;20828586;28;20054;-64
2021/08/20 00:34:24;;;;;;;8.15;4.00;;;;;;;;;;20828661;28;20102;-63
2021/08/20 00:44:26;;;;;;;9.73;4.28;;;;;;;;;;20827448;28;20049;-64
2021/08/20 00:54:29;;;;;;;14.75;5.18;;;;;;;;;;20826647;28;20045;-62
2021/08/20 01:04:31;;;;;;;13.93;6.00;;;;;;;;;;20826366;28;20096;-61
2021/08/20 01:14:35;;;;;;;12.65;5.28;;;;;;;;;;20825916;28;20136;-63
2021/08/20 01:24:37;;;;;;;8.25;5.43;;;;;;;;;;20824953;28;20098;-63
2021/08/20 01:34:39;;;;;;;12.07;4.97;;;;;;;;;;20824313;28;20050;-64
2021/08/20 01:44:45;;;;;;;7.72;4.82;;;;;;;;;;20824574;28;20080;-64
2021/08/20 01:54:49;;;;;;;9.35;5.80;;;;;;;;;;20823220;28;20056;-63
2021/08/20 02:04:52;;;;;;;10.73;5.22;;;;;;;;;;20822553;28;20539;-63
2021/08/20 02:14:55;;;;;;;10.13;5.45;;;;;;;;;;20821183;28;20053;-63
2021/08/20 02:24:57;;;;;;;9.13;4.72;;;;;;;;;;20821135;28;20046;-63
2021/08/20 02:35:00;;;;;;;14.07;6.22;;;;;;;;;;20822087;28;20414;-63
2021/08/20 02:45:04;;;;;;;9.35;5.07;;;;;;;;;;20821016;28;20045;-62
2021/08/20 02:55:07;;;;;;;9.80;4.82;;;;;;;;;;20870050;28;20060;-64
2021/08/20 03:05:10;;;;;;;11.07;5.30;;;;;;;;;;20819286;28;20057;-63
2021/08/20 03:15:13;;;;;;;13.73;5.28;;;;;;;;;;20819624;28;20133;-66
2021/08/20 03:25:34;;;;;;;;;;;;;;;;;;20820586;28;20055;-65
2021/08/20 03:35:56;;;;;;;11.70;5.03;;;;;;;;;;20818635;28;20297;-64
2021/08/20 03:46:08;;;;;;;9.80;4.53;;;;;;;;;;20816393;28;20481;-64
2021/08/20 03:56:13;;;;;;;9.85;4.93;;;;;;;;;;20816556;28;20398;-63
2021/08/20 04:06:19;;;;;;;9.20;4.70;;;;;;;;;;20816329;28;20588;-64
2021/08/20 04:16:30;;;;;;;7.80;5.10;;;;;;;;;;20815676;28;20132;-64
2021/08/20 04:26:35;;;;;;;10.00;5.15;;;;;;;;;;20814811;28;20055;-64
2021/08/20 04:36:44;;;;;;;11.68;5.05;;;;;;;;;;20890127;28;20091;-63
2021/08/20 04:46:50;;;;;;;10.07;5.05;;;;;;;;;;20827532;28;20053;-64
2021/08/20 04:56:56;;;;;;;12.23;4.88;;;;;;;;;;20893508;28;20132;-63
2021/08/20 05:07:00;;;;;;;11.85;5.60;;;;;;;;;;20826114;28;20058;-63
2021/08/20 05:17:04;;;;;;;11.48;5.18;;;;;;;;;;20825948;28;20078;-63
2021/08/20 05:27:07;;;;;;;11.45;5.22;;;;;;;;;;20825621;28;20053;-64
2021/08/20 05:37:09;;;;;;;12.02;5.80;;;;;;;;;;20824446;28;20049;-64
2021/08/20 05:47:13;;;;;;;13.23;5.80;;;;;;;;;;20823447;28;20049;-64
2021/08/20 05:57:16;;;;;;;12.55;5.85;;;;;;;;;;20823142;28;20047;-64
2021/08/20 06:07:18;;;;;;;13.30;5.30;;;;;;;;;;20822467;28;20052;-64
2021/08/20 06:17:22;;;;;;;11.90;5.28;;;;;;;;;;20821707;27;20077;-65
2021/08/20 06:27:24;;;;;;;13.10;6.03;;;;;;;;;;20821321;28;20331;-64
2021/08/20 06:37:27;;;;;;;9.82;5.55;;;;;;;;;;20820343;28;20049;-63
2021/08/20 06:47:30;;;;;;;18.67;7.88;;;;;;;;;;20819959;28;20050;-65
2021/08/20 06:57:32;;;;;;;12.00;5.97;;;;;;;;;;20818419;28;20053;-64
2021/08/20 07:07:34;;;;;;;;;;;;;;;;;;20818202;28;20057;-63
2021/08/20 07:17:36;;;;;;;12.77;5.30;;;;;;;;;;20817868;28;19921;-64
2021/08/20 07:27:38;;;;;;;11.30;5.85;;;;;;;;;;20817373;28;20311;-64
2021/08/20 07:37:41;;;;;;;16.67;9.85;;;;;;;;;;20817020;28;20041;-64
2021/08/20 07:47:47;;;;;;;12.20;5.72;;;;;;;;;;20816657;28;20067;-63
2021/08/20 07:57:52;;;;;;;13.93;5.10;;;;;;;;;;20882647;28;20046;-64
2021/08/20 08:07:55;;;;;;;15.35;6.07;;;;;;;;;;20820699;28;20050;-64
2021/08/20 08:17:57;;;;;;;12.63;5.10;;;;;;;;;;20829525;28;20390;-63
2021/08/20 08:27:59;;;;;;;9.77;5.57;;;;;;;;;;20828762;28;20054;-63
2021/08/20 08:38:14;;;;;;;15.75;5.75;;;;;;;;;;20827642;28;20121;-66
2021/08/20 08:48:16;;;;;;;11.60;5.25;;;;;;;;;;20827259;28;20049;-64
2021/08/20 08:58:18;;;;;;;9.60;5.32;;;;;;;;;;20826912;28;20049;-65
2021/08/20 09:08:22;;;;;;;15.13;5.22;;;;;;;;;;20825537;28;20061;-65
2021/08/20 09:18:26;;;;;;;14.18;5.72;;;;;;;;;;20824695;28;20053;-65
2021/08/20 09:28:30;;;;;;;12.95;5.32;;;;;;;;;;20824493;28;20055;-65
2021/08/20 09:38:45;;;;;;;12.85;5.43;;;;;;;;;;20824074;28;20091;-66
2021/08/20 09:48:49;;;;;;;13.18;5.25;;;;;;;;;;20823308;28;20498;-65
2021/08/20 09:58:58;;;;;;;10.48;5.03;;;;;;;;;;20824119;28;20072;-65
2021/08/20 10:09:01;;;;;;;8.75;5.13;;;;;;;;;;20824093;28;20053;-65
2021/08/20 10:19:04;;;;;;;9.38;5.50;;;;;;;;;;20822660;28;20054;-65
2021/08/20 10:29:07;;;;;;;11.10;8.48;;;;;;;;;;20820799;28;20545;-65
2021/08/20 10:39:10;;;;;;;10.38;5.78;;;;;;;;;;20821351;28;20045;-64
2021/08/20 10:59:33;;;;;;;9.68;5.40;;;;;;;;;;20819899;28;20048;-63
2021/08/20 11:09:42;;;;;;;11.90;5.45;;;;;;;;;;20818283;28;20083;-64
2021/08/20 11:19:46;;;;;;;8.65;5.72;;;;;;;;;;20818242;28;20046;-62
2021/08/20 11:29:50;;;;;;;10.80;5.97;;;;;;;;;;20818326;28;20481;-64
2021/08/20 11:39:58;;;;;;;;;;;;;;;;;;20887816;27;20049;-63
2021/08/20 11:50:06;;;;;;;14.82;9.52;;;;;;;;;;20831582;28;19921;-63
2021/08/20 12:00:10;;;;;;;7.60;4.13;;;;;;;;;;20831168;28;20041;-65
2021/08/20 12:10:13;;;;;;;9.65;4.70;;;;;;;;;;20829612;28;20062;-63
2021/08/20 12:20:20;;;;;;;16.48;11.18;;;;;;;;;;20829517;28;20052;-64
2021/08/20 12:30:25;;;;;;;8.15;4.70;;;;;;;;;;20828346;28;20443;-65
2021/08/20 12:40:34;;;;;;;10.50;4.57;;;;;;;;;;20828078;28;20049;-64
2021/08/20 12:50:37;;;;;;;10.13;4.15;;;;;;;;;;20826819;28;20069;-66
2021/08/20 13:00:41;;;;;;;7.07;4.32;;;;;;;;;;20827204;28;20048;-63
2021/08/20 13:10:42;;;;;;;7.63;4.65;;;;;;;;;;20825759;28;20489;-64
2021/08/20 13:20:49;;;;;;;7.35;3.97;;;;;;;;;;20893241;28;20049;-64
2021/08/20 13:30:51;;;;;;;5.93;3.95;;;;;;;;;;20826131;28;20046;-63
2021/08/20 13:40:53;;;;;;;7.47;3.50;;;;;;;;;;20824879;28;20048;-64
2021/08/20 13:50:55;;;;;;;6.25;3.85;;;;;;;;;;20823830;28;20133;-63
2021/08/20 14:00:57;;;;;;;7.65;3.08;;;;;;;;;;20823547;28;20050;-64
2021/08/20 14:10:59;;;;;;;7.80;3.60;;;;;;;;;;20822129;28;20099;-63
2021/08/20 14:21:01;;;;;;;5.75;3.90;;;;;;;;;;20822305;28;20041;-64
2021/08/20 14:31:04;;;;;;;5.05;3.35;;;;;;;;;;20821827;28;20049;-69
2021/08/20 14:41:06;;;;;;;8.05;4.78;;;;;;;;;;20820991;28;20050;-65
2021/08/20 14:51:09;;;;;;;8.43;3.65;;;;;;;;;;20820384;28;20087;-65
2021/08/20 15:01:11;;;;;;;5.70;3.60;;;;;;;;;;20819608;28;20058;-62
2021/08/20 15:11:13;;;;;;;6.82;3.83;;;;;;;;;;20886293;28;20561;-62
2021/08/20 15:21:16;;;;;;;7.70;3.28;;;;;;;;;;20818306;28;20497;-65
2021/08/20 15:31:18;;;;;;;4.07;2.97;;;;;;;;;;20817457;28;20053;-65
2021/08/20 15:41:20;;;;;;;6.88;3.88;;;;;;;;;;20817314;28;20060;-65
2021/08/20 15:51:22;;;;;;;6.97;5.03;;;;;;;;;;20885009;28;20565;-63
2021/08/20 16:01:24;;;;;;;6.05;3.60;;;;;;;;;;20817300;28;20085;-66
2021/08/20 16:11:26;;;;;;;5.57;3.45;;;;;;;;;;20816063;28;20065;-66
2021/08/20 16:21:30;;;;;;;6.35;3.95;;;;;;;;;;20883556;28;20041;-65
2021/08/20 16:31:32;;;;;;;4.80;3.85;;;;;;;;;;20824549;28;20045;-66
2021/08/20 16:41:38;;;;;;;6.47;3.80;;;;;;;;;;20829002;28;20045;-64
2021/08/20 16:51:40;;;;;;;6.63;3.40;;;;;;;;;;20829138;28;20049;-65
2021/08/20 17:01:45;;;;;;;7.78;5.13;;;;;;;;;;20829041;28;20049;-66
2021/08/20 17:11:47;;;;;;;5.95;4.18;;;;;;;;;;20841562;28;20084;-65
2021/08/20 17:21:49;;;;;;;5.50;3.53;;;;;;;;;;20900524;28;20095;-65
2021/08/20 17:31:51;;;;;;;6.45;3.40;;;;;;;;;;20825209;28;20498;-65
2021/08/20 17:41:53;;;;;;;5.43;3.40;;;;;;;;;;20823826;28;20075;-65
2021/08/20 17:51:56;;;;;;;6.68;4.13;;;;;;;;;;20823787;28;20057;-65
2021/08/20 18:01:59;;;;;;;6.38;3.63;;;;;;;;;;20822799;28;20132;-65
2021/08/20 18:12:03;;;;;;;5.72;3.92;;;;;;;;;;20823356;28;20057;-66
2021/08/20 18:22:06;;;;;;;5.38;3.83;;;;;;;;;;20823274;28;20056;-67
2021/08/20 18:32:08;;;;;;;11.10;4.50;;;;;;;;;;20821690;28;20045;-66
2021/08/20 18:42:10;;;;;;;6.03;3.70;;;;;;;;;;20821100;28;20078;-67
2021/08/20 18:52:13;;;;;;;7.05;4.97;;;;;;;;;;20819590;28;20510;-69
2021/08/20 19:02:16;;;;;;;6.18;4.22;;;;;;;;;;20819863;28;20053;-68
2021/08/20 19:12:18;;;;;;;7.03;4.50;;;;;;;;;;20887209;28;20061;-66
2021/08/20 19:22:23;;;;;;;9.10;4.38;;;;;;;;;;20818571;28;20056;-66
2021/08/20 19:32:26;;;;;;;6.50;4.53;;;;;;;;;;20818476;28;20053;-66
2021/08/20 19:42:28;;;;;;;8.45;4.72;;;;;;;;;;20885863;28;20493;-66
2021/08/20 19:52:31;;;;;;;6.60;4.50;;;;;;;;;;20817123;28;20050;-66
2021/08/20 20:02:33;;;;;;;7.63;4.93;;;;;;;;;;20821307;28;20109;-69
2021/08/20 20:12:36;;;;;;;7.85;5.00;;;;;;;;;;20898389;28;20049;-69
2021/08/20 20:22:39;;;;;;;9.35;5.45;;;;;;;;;;20829887;28;20053;-66
2021/08/20 20:32:41;;;;;;;8.75;4.63;;;;;;;;;;20829531;28;20554;-68
2021/08/20 20:42:43;;;;;;;9.55;5.40;;;;;;;;;;20828322;28;20132;-69
2021/08/20 20:52:45;;;;;;;9.02;5.47;;;;;;;;;;20828118;28;20052;-66
2021/08/20 21:02:52;;;;;;;7.13;5.43;;;;;;;;;;20827429;28;20077;-68
2021/08/20 21:12:54;;;;;;;9.63;5.95;;;;;;;;;;20893656;28;20466;-68
2021/08/20 21:22:56;;;;;;;7.63;5.90;;;;;;;;;;20825893;28;20541;-67
2021/08/20 21:32:58;;;;;;;9.88;5.18;;;;;;;;;;20825155;28;20049;-66
2021/08/20 21:43:00;;;;;;;12.50;5.65;;;;;;;;;;20824719;28;20446;-69
2021/08/20 21:53:03;;;;;;;7.97;5.38;;;;;;;;;;20824137;28;20049;-70
2021/08/20 22:03:05;;;;;;;8.57;6.13;;;;;;;;;;20892072;28;20060;-67
2021/08/20 22:13:07;;;;;;;8.20;5.40;;;;;;;;;;20822894;28;20133;-67
2021/08/20 22:23:09;;;;;;;9.63;6.70;;;;;;;;;;20888408;28;20110;-67
2021/08/20 22:33:11;;;;;;;11.57;5.78;;;;;;;;;;20820948;28;20060;-68
2021/08/20 22:43:13;;;;;;;11.70;5.63;;;;;;;;;;20820659;28;20072;-66
2021/08/20 22:53:15;;;;;;;11.80;7.15;;;;;;;;;;20820347;28;20061;-65
2021/08/20 23:03:17;;;;;;;12.20;9.60;;;;;;;;;;20819368;28;20127;-67
2021/08/20 23:13:20;;;;;;;15.30;8.38;;;;;;;;;;20819239;28;20512;-66
2021/08/20 23:23:22;;;;;;;16.05;10.63;;;;;;;;;;20818744;28;20136;-66
2021/08/20 23:33:24;;;;;;;10.45;6.22;;;;;;;;;;20818083;28;20052;-68
2021/08/20 23:43:26;;;;;;;16.52;6.38;;;;;;;;;;20900666;28;20162;-67
2021/08/20 23:53:28;;;;;;;8.82;6.22;;;;;;;;;;20832088;28;20050;-66
